sensor_id;sensor_type;location;lat;lon;timestamp;P1;durP1;ratioP1;P2;durP2;ratioP2
5823;SDS011;2938;52.254;12.988;2022-11-12T00:01:21;16.05;;;10.73;;
5823;SDS011;2938;52.254;12.988;2022-11-12T00:03:46;11.35;;;8.52;;
5823;SDS011;2938;52.254;12.988;2022-11-12T00:06:12;15.05;;;7.55;;
5823;SDS011;2938;52.254;12.988;2022-11-12T00:08:37;11.20;;;7.40;;
5823;SDS011;2938;52.254;12.988;2022-11-12T00:11:02;12.75;;;8.13;;
5823;SDS011;2938;52.254;12.988;2022-11-12T00:13:29;19.63;;;10.80;;
5823;SDS011;2938;52.254;12.988;2022-11-12T00:15:54;17.10;;;9.90;;
5823;SDS011;2938;52.254;12.988;2022-11-12T00:18:20;14.77;;;9.93;;
5823;SDS011;2938;52.254;12.988;2022-11-12T00:20:45;14.13;;;8.18;;
5823;SDS011;2938;52.254;12.988;2022-11-12T00:23:13;17.23;;;10.10;;
5823;SDS011;2938;52.254;12.988;2022-11-12T00:25:38;14.63;;;9.65;;
5823;SDS011;2938;52.254;12.988;2022-11-12T00:28:04;15.30;;;10.40;;
5823;SDS011;2938;52.254;12.988;2022-11-12T00:30:33;17.92;;;10.48;;
5823;SDS011;2938;52.254;12.988;2022-11-12T00:33:01;17.20;;;10.45;;
5823;SDS011;2938;52.254;12.988;2022-11-12T00:35:27;8.90;;;8.00;;
5823;SDS011;2938;52.254;12.988;2022-11-12T00:37:53;15.32;;;7.72;;
5823;SDS011;2938;52.254;12.988;2022-11-12T00:40:22;12.65;;;7.35;;
5823;SDS011;2938;52.254;12.988;2022-11-12T00:42:49;12.43;;;8.88;;
5823;SDS011;2938;52.254;12.988;2022-11-12T00:45:15;17.95;;;10.88;;
5823;SDS011;2938;52.254;12.988;2022-11-12T00:47:41;13.95;;;10.45;;
5823;SDS011;2938;52.254;12.988;2022-11-12T00:50:06;17.00;;;10.38;;
5823;SDS011;2938;52.254;12.988;2022-11-12T00:52:32;11.88;;;7.95;;
5823;SDS011;2938;52.254;12.988;2022-11-12T00:55:00;13.88;;;9.55;;
5823;SDS011;2938;52.254;12.988;2022-11-12T00:57:25;11.20;;;8.68;;
5823;SDS011;2938;52.254;12.988;2022-11-12T00:59:50;10.32;;;8.98;;
5823;SDS011;2938;52.254;12.988;2022-11-12T01:02:16;11.65;;;8.35;;
5823;SDS011;2938;52.254;12.988;2022-11-12T01:04:41;11.30;;;7.95;;
5823;SDS011;2938;52.254;12.988;2022-11-12T01:07:07;10.80;;;7.63;;
5823;SDS011;2938;52.254;12.988;2022-11-12T01:09:32;12.68;;;7.50;;
5823;SDS011;2938;52.254;12.988;2022-11-12T01:12:02;12.93;;;7.47;;
5823;SDS011;2938;52.254;12.988;2022-11-12T01:14:27;15.73;;;7.38;;
5823;SDS011;2938;52.254;12.988;2022-11-12T01:16:55;9.85;;;7.53;;
5823;SDS011;2938;52.254;12.988;2022-11-12T01:19:30;11.45;;;7.40;;
5823;SDS011;2938;52.254;12.988;2022-11-12T01:21:58;9.98;;;7.68;;
5823;SDS011;2938;52.254;12.988;2022-11-12T01:24:24;11.38;;;7.68;;
5823;SDS011;2938;52.254;12.988;2022-11-12T01:26:49;12.63;;;8.32;;
5823;SDS011;2938;52.254;12.988;2022-11-12T01:29:14;7.72;;;6.85;;
5823;SDS011;2938;52.254;12.988;2022-11-12T01:31:40;9.90;;;6.97;;
5823;SDS011;2938;52.254;12.988;2022-11-12T01:34:06;10.25;;;6.85;;
5823;SDS011;2938;52.254;12.988;2022-11-12T01:36:34;12.32;;;6.93;;
5823;SDS011;2938;52.254;12.988;2022-11-12T01:39:01;11.13;;;6.97;;
5823;SDS011;2938;52.254;12.988;2022-11-12T01:41:29;12.70;;;7.35;;
5823;SDS011;2938;52.254;12.988;2022-11-12T01:49:31;13.27;;;8.05;;
5823;SDS011;2938;52.254;12.988;2022-11-12T01:52:16;15.80;;;6.72;;
5823;SDS011;2938;52.254;12.988;2022-11-12T01:54:47;12.40;;;7.80;;
5823;SDS011;2938;52.254;12.988;2022-11-12T01:57:16;11.60;;;6.50;;
5823;SDS011;2938;52.254;12.988;2022-11-12T01:59:44;13.63;;;7.43;;
5823;SDS011;2938;52.254;12.988;2022-11-12T02:02:11;10.68;;;7.25;;
5823;SDS011;2938;52.254;12.988;2022-11-12T02:04:37;15.25;;;7.03;;
5823;SDS011;2938;52.254;12.988;2022-11-12T02:07:04;8.35;;;6.63;;
5823;SDS011;2938;52.254;12.988;2022-11-12T02:09:30;11.90;;;7.35;;
5823;SDS011;2938;52.254;12.988;2022-11-12T02:11:57;10.98;;;6.03;;
5823;SDS011;2938;52.254;12.988;2022-11-12T02:14:23;6.85;;;5.63;;
5823;SDS011;2938;52.254;12.988;2022-11-12T02:16:48;10.80;;;6.22;;
5823;SDS011;2938;52.254;12.988;2022-11-12T02:19:15;9.32;;;5.78;;
5823;SDS011;2938;52.254;12.988;2022-11-12T02:21:40;7.38;;;5.15;;
5823;SDS011;2938;52.254;12.988;2022-11-12T02:26:38;10.23;;;5.63;;
5823;SDS011;2938;52.254;12.988;2022-11-12T02:29:06;9.77;;;5.78;;
5823;SDS011;2938;52.254;12.988;2022-11-12T02:31:31;10.30;;;6.40;;
5823;SDS011;2938;52.254;12.988;2022-11-12T02:33:57;8.93;;;5.22;;
5823;SDS011;2938;52.254;12.988;2022-11-12T02:36:22;14.82;;;5.95;;
5823;SDS011;2938;52.254;12.988;2022-11-12T02:38:48;8.50;;;5.95;;
5823;SDS011;2938;52.254;12.988;2022-11-12T02:41:13;9.07;;;5.70;;
5823;SDS011;2938;52.254;12.988;2022-11-12T02:43:38;10.20;;;6.07;;
5823;SDS011;2938;52.254;12.988;2022-11-12T02:46:04;9.63;;;6.30;;
5823;SDS011;2938;52.254;12.988;2022-11-12T02:48:30;9.60;;;5.60;;
5823;SDS011;2938;52.254;12.988;2022-11-12T02:50:56;9.48;;;5.90;;
5823;SDS011;2938;52.254;12.988;2022-11-12T02:53:21;8.38;;;6.30;;
5823;SDS011;2938;52.254;12.988;2022-11-12T02:55:46;11.13;;;5.65;;
5823;SDS011;2938;52.254;12.988;2022-11-12T02:58:13;10.40;;;7.30;;
5823;SDS011;2938;52.254;12.988;2022-11-12T03:00:39;9.98;;;7.18;;
5823;SDS011;2938;52.254;12.988;2022-11-12T03:03:04;14.55;;;7.75;;
5823;SDS011;2938;52.254;12.988;2022-11-12T03:05:30;10.63;;;6.82;;
5823;SDS011;2938;52.254;12.988;2022-11-12T03:07:57;12.90;;;5.82;;
5823;SDS011;2938;52.254;12.988;2022-11-12T03:10:29;8.95;;;6.03;;
5823;SDS011;2938;52.254;12.988;2022-11-12T03:12:56;9.40;;;6.55;;
5823;SDS011;2938;52.254;12.988;2022-11-12T03:15:24;12.95;;;7.72;;
5823;SDS011;2938;52.254;12.988;2022-11-12T03:17:51;11.35;;;6.40;;
5823;SDS011;2938;52.254;12.988;2022-11-12T03:20:16;9.27;;;5.95;;
5823;SDS011;2938;52.254;12.988;2022-11-12T03:22:42;12.07;;;6.05;;
5823;SDS011;2938;52.254;12.988;2022-11-12T03:25:08;10.93;;;6.10;;
5823;SDS011;2938;52.254;12.988;2022-11-12T03:27:33;10.82;;;7.53;;
5823;SDS011;2938;52.254;12.988;2022-11-12T03:29:58;13.50;;;8.23;;
5823;SDS011;2938;52.254;12.988;2022-11-12T03:32:24;11.35;;;7.78;;
5823;SDS011;2938;52.254;12.988;2022-11-12T03:34:49;10.48;;;5.45;;
5823;SDS011;2938;52.254;12.988;2022-11-12T03:37:15;10.38;;;5.82;;
5823;SDS011;2938;52.254;12.988;2022-11-12T03:39:40;14.15;;;7.05;;
5823;SDS011;2938;52.254;12.988;2022-11-12T03:42:06;9.13;;;6.93;;
5823;SDS011;2938;52.254;12.988;2022-11-12T03:44:31;10.65;;;7.55;;
5823;SDS011;2938;52.254;12.988;2022-11-12T03:46:57;8.55;;;7.00;;
5823;SDS011;2938;52.254;12.988;2022-11-12T03:49:22;11.63;;;6.43;;
5823;SDS011;2938;52.254;12.988;2022-11-12T03:51:47;13.40;;;6.28;;
5823;SDS011;2938;52.254;12.988;2022-11-12T03:54:13;13.23;;;6.20;;
5823;SDS011;2938;52.254;12.988;2022-11-12T03:56:38;9.40;;;6.38;;
5823;SDS011;2938;52.254;12.988;2022-11-12T03:59:04;8.65;;;5.90;;
5823;SDS011;2938;52.254;12.988;2022-11-12T04:01:29;11.85;;;6.28;;
5823;SDS011;2938;52.254;12.988;2022-11-12T04:03:55;11.95;;;6.45;;
5823;SDS011;2938;52.254;12.988;2022-11-12T04:06:20;12.15;;;6.15;;
5823;SDS011;2938;52.254;12.988;2022-11-12T04:09:04;9.52;;;6.80;;
5823;SDS011;2938;52.254;12.988;2022-11-12T04:11:29;9.15;;;5.63;;
5823;SDS011;2938;52.254;12.988;2022-11-12T04:13:55;8.93;;;7.28;;
5823;SDS011;2938;52.254;12.988;2022-11-12T04:16:20;14.75;;;6.47;;
5823;SDS011;2938;52.254;12.988;2022-11-12T04:19:05;11.40;;;6.25;;
5823;SDS011;2938;52.254;12.988;2022-11-12T04:21:51;9.82;;;5.40;;
5823;SDS011;2938;52.254;12.988;2022-11-12T04:24:22;8.80;;;6.22;;
5823;SDS011;2938;52.254;12.988;2022-11-12T04:27:07;12.88;;;6.40;;
5823;SDS011;2938;52.254;12.988;2022-11-12T04:29:34;8.43;;;5.22;;
5823;SDS011;2938;52.254;12.988;2022-11-12T04:32:18;6.53;;;4.75;;
5823;SDS011;2938;52.254;12.988;2022-11-12T04:34:43;17.38;;;6.65;;
5823;SDS011;2938;52.254;12.988;2022-11-12T04:37:09;11.32;;;6.68;;
5823;SDS011;2938;52.254;12.988;2022-11-12T04:39:34;10.48;;;6.47;;
5823;SDS011;2938;52.254;12.988;2022-11-12T04:41:59;7.88;;;5.65;;
5823;SDS011;2938;52.254;12.988;2022-11-12T04:44:43;11.98;;;5.32;;
5823;SDS011;2938;52.254;12.988;2022-11-12T04:47:25;10.55;;;6.30;;
5823;SDS011;2938;52.254;12.988;2022-11-12T04:49:58;7.07;;;5.68;;
5823;SDS011;2938;52.254;12.988;2022-11-12T04:52:25;9.02;;;5.55;;
5823;SDS011;2938;52.254;12.988;2022-11-12T04:54:51;7.93;;;5.03;;
5823;SDS011;2938;52.254;12.988;2022-11-12T04:57:16;7.85;;;6.30;;
5823;SDS011;2938;52.254;12.988;2022-11-12T04:59:42;12.18;;;5.65;;
5823;SDS011;2938;52.254;12.988;2022-11-12T05:02:08;7.88;;;6.20;;
5823;SDS011;2938;52.254;12.988;2022-11-12T05:04:33;8.77;;;5.32;;
5823;SDS011;2938;52.254;12.988;2022-11-12T05:06:58;7.20;;;4.95;;
5823;SDS011;2938;52.254;12.988;2022-11-12T05:09:25;10.50;;;5.43;;
5823;SDS011;2938;52.254;12.988;2022-11-12T05:11:51;8.05;;;5.90;;
5823;SDS011;2938;52.254;12.988;2022-11-12T05:14:19;12.13;;;6.05;;
5823;SDS011;2938;52.254;12.988;2022-11-12T05:16:45;11.02;;;6.57;;
5823;SDS011;2938;52.254;12.988;2022-11-12T05:19:10;12.15;;;6.05;;
5823;SDS011;2938;52.254;12.988;2022-11-12T05:21:36;11.95;;;5.78;;
5823;SDS011;2938;52.254;12.988;2022-11-12T05:24:20;7.40;;;5.25;;
5823;SDS011;2938;52.254;12.988;2022-11-12T05:26:56;9.48;;;5.38;;
5823;SDS011;2938;52.254;12.988;2022-11-12T05:29:21;8.05;;;6.13;;
5823;SDS011;2938;52.254;12.988;2022-11-12T05:31:46;8.10;;;5.68;;
5823;SDS011;2938;52.254;12.988;2022-11-12T05:34:12;7.90;;;5.60;;
5823;SDS011;2938;52.254;12.988;2022-11-12T05:36:37;10.35;;;5.80;;
5823;SDS011;2938;52.254;12.988;2022-11-12T05:39:03;16.17;;;7.85;;
5823;SDS011;2938;52.254;12.988;2022-11-12T05:41:28;16.60;;;6.60;;
5823;SDS011;2938;52.254;12.988;2022-11-12T05:43:54;8.50;;;5.60;;
5823;SDS011;2938;52.254;12.988;2022-11-12T05:46:21;9.35;;;5.82;;
5823;SDS011;2938;52.254;12.988;2022-11-12T05:48:50;13.95;;;6.43;;
5823;SDS011;2938;52.254;12.988;2022-11-12T05:51:15;8.75;;;5.53;;
5823;SDS011;2938;52.254;12.988;2022-11-12T05:53:41;9.57;;;5.72;;
5823;SDS011;2938;52.254;12.988;2022-11-12T05:56:07;10.45;;;6.18;;
5823;SDS011;2938;52.254;12.988;2022-11-12T05:58:33;9.95;;;5.32;;
5823;SDS011;2938;52.254;12.988;2022-11-12T06:00:59;8.75;;;5.15;;
5823;SDS011;2938;52.254;12.988;2022-11-12T06:03:24;6.88;;;4.93;;
5823;SDS011;2938;52.254;12.988;2022-11-12T06:05:50;8.95;;;4.95;;
5823;SDS011;2938;52.254;12.988;2022-11-12T06:08:16;7.13;;;5.30;;
5823;SDS011;2938;52.254;12.988;2022-11-12T06:10:42;5.93;;;5.03;;
5823;SDS011;2938;52.254;12.988;2022-11-12T06:13:08;8.93;;;4.63;;
5823;SDS011;2938;52.254;12.988;2022-11-12T06:15:34;4.97;;;4.45;;
5823;SDS011;2938;52.254;12.988;2022-11-12T06:17:59;7.18;;;4.70;;
5823;SDS011;2938;52.254;12.988;2022-11-12T06:20:28;6.38;;;4.40;;
5823;SDS011;2938;52.254;12.988;2022-11-12T06:22:53;8.60;;;5.00;;
5823;SDS011;2938;52.254;12.988;2022-11-12T06:25:20;8.82;;;5.35;;
5823;SDS011;2938;52.254;12.988;2022-11-12T06:27:47;6.43;;;4.65;;
5823;SDS011;2938;52.254;12.988;2022-11-12T06:30:13;5.85;;;4.65;;
5823;SDS011;2938;52.254;12.988;2022-11-12T06:32:39;6.85;;;4.82;;
5823;SDS011;2938;52.254;12.988;2022-11-12T06:35:05;6.13;;;4.82;;
5823;SDS011;2938;52.254;12.988;2022-11-12T06:37:31;8.15;;;4.68;;
5823;SDS011;2938;52.254;12.988;2022-11-12T06:39:56;11.68;;;5.15;;
5823;SDS011;2938;52.254;12.988;2022-11-12T06:42:21;9.10;;;4.63;;
5823;SDS011;2938;52.254;12.988;2022-11-12T06:44:47;7.35;;;5.25;;
5823;SDS011;2938;52.254;12.988;2022-11-12T06:47:13;13.68;;;4.63;;
5823;SDS011;2938;52.254;12.988;2022-11-12T06:49:38;9.32;;;5.47;;
5823;SDS011;2938;52.254;12.988;2022-11-12T06:52:04;7.65;;;5.25;;
5823;SDS011;2938;52.254;12.988;2022-11-12T06:54:29;9.07;;;5.70;;
5823;SDS011;2938;52.254;12.988;2022-11-12T06:56:54;11.20;;;6.03;;
5823;SDS011;2938;52.254;12.988;2022-11-12T06:59:20;11.18;;;4.85;;
5823;SDS011;2938;52.254;12.988;2022-11-12T07:01:48;6.68;;;4.78;;
5823;SDS011;2938;52.254;12.988;2022-11-12T07:04:13;7.97;;;5.65;;
5823;SDS011;2938;52.254;12.988;2022-11-12T07:06:39;6.38;;;4.18;;
5823;SDS011;2938;52.254;12.988;2022-11-12T07:09:04;11.15;;;4.90;;
5823;SDS011;2938;52.254;12.988;2022-11-12T07:11:29;10.25;;;5.70;;
5823;SDS011;2938;52.254;12.988;2022-11-12T07:13:55;7.80;;;5.80;;
5823;SDS011;2938;52.254;12.988;2022-11-12T07:16:20;13.20;;;5.53;;
5823;SDS011;2938;52.254;12.988;2022-11-12T07:18:46;14.68;;;7.38;;
5823;SDS011;2938;52.254;12.988;2022-11-12T07:21:16;11.40;;;6.60;;
5823;SDS011;2938;52.254;12.988;2022-11-12T07:23:43;7.65;;;5.55;;
5823;SDS011;2938;52.254;12.988;2022-11-12T07:26:13;7.00;;;4.65;;
5823;SDS011;2938;52.254;12.988;2022-11-12T07:28:43;8.77;;;4.63;;
5823;SDS011;2938;52.254;12.988;2022-11-12T07:31:10;9.32;;;4.85;;
5823;SDS011;2938;52.254;12.988;2022-11-12T07:33:36;5.72;;;4.60;;
5823;SDS011;2938;52.254;12.988;2022-11-12T07:36:06;5.70;;;3.97;;
5823;SDS011;2938;52.254;12.988;2022-11-12T07:38:36;8.65;;;5.22;;
5823;SDS011;2938;52.254;12.988;2022-11-12T07:41:03;7.47;;;4.88;;
5823;SDS011;2938;52.254;12.988;2022-11-12T07:43:33;5.20;;;3.72;;
5823;SDS011;2938;52.254;12.988;2022-11-12T07:46:00;7.47;;;4.75;;
5823;SDS011;2938;52.254;12.988;2022-11-12T07:48:27;8.48;;;5.05;;
5823;SDS011;2938;52.254;12.988;2022-11-12T07:50:58;8.82;;;5.55;;
5823;SDS011;2938;52.254;12.988;2022-11-12T07:53:24;7.57;;;4.32;;
5823;SDS011;2938;52.254;12.988;2022-11-12T07:55:57;9.05;;;5.47;;
5823;SDS011;2938;52.254;12.988;2022-11-12T07:58:24;10.88;;;4.40;;
5823;SDS011;2938;52.254;12.988;2022-11-12T08:00:50;8.85;;;5.88;;
5823;SDS011;2938;52.254;12.988;2022-11-12T08:03:18;10.50;;;5.72;;
5823;SDS011;2938;52.254;12.988;2022-11-12T08:05:43;8.70;;;5.40;;
5823;SDS011;2938;52.254;12.988;2022-11-12T08:08:09;9.63;;;6.13;;
5823;SDS011;2938;52.254;12.988;2022-11-12T08:10:35;7.40;;;5.40;;
5823;SDS011;2938;52.254;12.988;2022-11-12T08:13:02;13.48;;;6.13;;
5823;SDS011;2938;52.254;12.988;2022-11-12T08:15:28;7.55;;;5.93;;
5823;SDS011;2938;52.254;12.988;2022-11-12T08:17:54;9.45;;;6.93;;
5823;SDS011;2938;52.254;12.988;2022-11-12T08:20:20;8.57;;;5.78;;
5823;SDS011;2938;52.254;12.988;2022-11-12T08:22:45;6.40;;;5.75;;
5823;SDS011;2938;52.254;12.988;2022-11-12T08:25:11;12.10;;;7.38;;
5823;SDS011;2938;52.254;12.988;2022-11-12T08:27:36;9.32;;;5.63;;
5823;SDS011;2938;52.254;12.988;2022-11-12T08:30:02;10.05;;;7.47;;
5823;SDS011;2938;52.254;12.988;2022-11-12T08:32:30;11.25;;;7.15;;
5823;SDS011;2938;52.254;12.988;2022-11-12T08:34:55;12.25;;;7.47;;
5823;SDS011;2938;52.254;12.988;2022-11-12T08:37:21;9.70;;;6.88;;
5823;SDS011;2938;52.254;12.988;2022-11-12T08:39:46;13.68;;;8.45;;
5823;SDS011;2938;52.254;12.988;2022-11-12T08:42:12;8.57;;;7.68;;
5823;SDS011;2938;52.254;12.988;2022-11-12T08:44:37;8.05;;;6.80;;
5823;SDS011;2938;52.254;12.988;2022-11-12T08:47:02;7.90;;;6.40;;
5823;SDS011;2938;52.254;12.988;2022-11-12T08:49:28;8.05;;;7.00;;
5823;SDS011;2938;52.254;12.988;2022-11-12T08:51:53;7.03;;;6.15;;
5823;SDS011;2938;52.254;12.988;2022-11-12T08:54:23;12.57;;;7.30;;
5823;SDS011;2938;52.254;12.988;2022-11-12T08:56:49;10.45;;;6.97;;
5823;SDS011;2938;52.254;12.988;2022-11-12T08:59:18;12.07;;;7.30;;
5823;SDS011;2938;52.254;12.988;2022-11-12T09:01:43;9.57;;;7.07;;
5823;SDS011;2938;52.254;12.988;2022-11-12T09:04:09;12.95;;;8.98;;
5823;SDS011;2938;52.254;12.988;2022-11-12T09:06:37;14.95;;;8.98;;
5823;SDS011;2938;52.254;12.988;2022-11-12T09:09:03;9.32;;;7.43;;
5823;SDS011;2938;52.254;12.988;2022-11-12T09:11:28;11.93;;;7.57;;
5823;SDS011;2938;52.254;12.988;2022-11-12T09:13:53;9.18;;;7.82;;
5823;SDS011;2938;52.254;12.988;2022-11-12T09:16:19;10.35;;;7.47;;
5823;SDS011;2938;52.254;12.988;2022-11-12T09:18:46;13.32;;;7.95;;
5823;SDS011;2938;52.254;12.988;2022-11-12T09:21:12;12.95;;;8.98;;
5823;SDS011;2938;52.254;12.988;2022-11-12T09:23:38;14.82;;;9.05;;
5823;SDS011;2938;52.254;12.988;2022-11-12T09:26:03;11.77;;;8.63;;
5823;SDS011;2938;52.254;12.988;2022-11-12T09:28:29;12.55;;;9.32;;
5823;SDS011;2938;52.254;12.988;2022-11-12T09:30:55;17.10;;;9.23;;
5823;SDS011;2938;52.254;12.988;2022-11-12T09:33:22;15.73;;;9.52;;
5823;SDS011;2938;52.254;12.988;2022-11-12T09:35:49;11.38;;;8.60;;
5823;SDS011;2938;52.254;12.988;2022-11-12T09:38:15;13.70;;;8.88;;
5823;SDS011;2938;52.254;12.988;2022-11-12T09:43:17;10.32;;;7.70;;
5823;SDS011;2938;52.254;12.988;2022-11-12T09:45:48;15.20;;;7.38;;
5823;SDS011;2938;52.254;12.988;2022-11-12T09:48:50;12.02;;;8.32;;
5823;SDS011;2938;52.254;12.988;2022-11-12T09:51:25;17.05;;;9.25;;
5823;SDS011;2938;52.254;12.988;2022-11-12T09:53:56;13.23;;;8.75;;
5823;SDS011;2938;52.254;12.988;2022-11-12T09:56:24;10.30;;;7.55;;
5823;SDS011;2938;52.254;12.988;2022-11-12T09:58:50;10.80;;;7.75;;
5823;SDS011;2938;52.254;12.988;2022-11-12T10:01:40;14.32;;;7.55;;
5823;SDS011;2938;52.254;12.988;2022-11-12T10:09:35;8.20;;;6.80;;
5823;SDS011;2938;52.254;12.988;2022-11-12T10:18:12;12.38;;;7.50;;
5823;SDS011;2938;52.254;12.988;2022-11-12T10:23:20;10.25;;;6.85;;
5823;SDS011;2938;52.254;12.988;2022-11-12T10:25:49;12.82;;;8.52;;
5823;SDS011;2938;52.254;12.988;2022-11-12T10:28:29;10.60;;;8.30;;
5823;SDS011;2938;52.254;12.988;2022-11-12T10:30:59;10.25;;;7.47;;
5823;SDS011;2938;52.254;12.988;2022-11-12T10:33:29;11.68;;;7.53;;
5823;SDS011;2938;52.254;12.988;2022-11-12T10:38:41;15.73;;;9.77;;
5823;SDS011;2938;52.254;12.988;2022-11-12T10:41:24;14.98;;;9.82;;
5823;SDS011;2938;52.254;12.988;2022-11-12T10:43:55;21.52;;;10.30;;
5823;SDS011;2938;52.254;12.988;2022-11-12T10:46:28;15.38;;;9.80;;
5823;SDS011;2938;52.254;12.988;2022-11-12T10:48:56;13.82;;;8.65;;
5823;SDS011;2938;52.254;12.988;2022-11-12T10:51:28;15.93;;;10.15;;
5823;SDS011;2938;52.254;12.988;2022-11-12T10:53:55;21.88;;;11.82;;
5823;SDS011;2938;52.254;12.988;2022-11-12T10:56:30;19.30;;;13.45;;
5823;SDS011;2938;52.254;12.988;2022-11-12T10:59:12;15.90;;;12.43;;
5823;SDS011;2938;52.254;12.988;2022-11-12T11:01:39;18.60;;;12.00;;
5823;SDS011;2938;52.254;12.988;2022-11-12T11:04:04;16.23;;;11.98;;
5823;SDS011;2938;52.254;12.988;2022-11-12T11:06:39;14.95;;;11.52;;
5823;SDS011;2938;52.254;12.988;2022-11-12T11:11:57;14.40;;;11.85;;
5823;SDS011;2938;52.254;12.988;2022-11-12T11:23:10;11.52;;;7.90;;
5823;SDS011;2938;52.254;12.988;2022-11-12T11:25:41;12.75;;;8.35;;
5823;SDS011;2938;52.254;12.988;2022-11-12T11:33:45;17.27;;;8.82;;
5823;SDS011;2938;52.254;12.988;2022-11-12T11:36:30;15.02;;;7.90;;
5823;SDS011;2938;52.254;12.988;2022-11-12T11:39:08;15.75;;;8.05;;
5823;SDS011;2938;52.254;12.988;2022-11-12T11:41:53;12.48;;;8.05;;
5823;SDS011;2938;52.254;12.988;2022-11-12T11:50:10;10.45;;;7.03;;
5823;SDS011;2938;52.254;12.988;2022-11-12T11:58:13;10.32;;;7.72;;
5823;SDS011;2938;52.254;12.988;2022-11-12T12:00:45;12.13;;;6.95;;
5823;SDS011;2938;52.254;12.988;2022-11-12T12:08:12;12.38;;;7.45;;
5823;SDS011;2938;52.254;12.988;2022-11-12T12:10:55;8.80;;;6.40;;
5823;SDS011;2938;52.254;12.988;2022-11-12T12:13:38;12.18;;;8.95;;
5823;SDS011;2938;52.254;12.988;2022-11-12T12:18:54;15.73;;;8.30;;
5823;SDS011;2938;52.254;12.988;2022-11-12T12:21:25;9.48;;;7.43;;
5823;SDS011;2938;52.254;12.988;2022-11-12T12:24:03;11.82;;;7.82;;
5823;SDS011;2938;52.254;12.988;2022-11-12T12:26:39;15.98;;;8.45;;
5823;SDS011;2938;52.254;12.988;2022-11-12T12:31:40;11.50;;;8.48;;
5823;SDS011;2938;52.254;12.988;2022-11-12T12:36:56;16.27;;;9.43;;
5823;SDS011;2938;52.254;12.988;2022-11-12T12:39:42;11.88;;;8.00;;
5823;SDS011;2938;52.254;12.988;2022-11-12T12:42:21;13.30;;;9.77;;
5823;SDS011;2938;52.254;12.988;2022-11-12T12:44:51;24.15;;;9.98;;
5823;SDS011;2938;52.254;12.988;2022-11-12T12:47:39;13.70;;;8.18;;
5823;SDS011;2938;52.254;12.988;2022-11-12T12:50:09;13.32;;;9.30;;
5823;SDS011;2938;52.254;12.988;2022-11-12T12:52:57;15.52;;;8.25;;
5823;SDS011;2938;52.254;12.988;2022-11-12T12:55:40;16.50;;;9.38;;
5823;SDS011;2938;52.254;12.988;2022-11-12T13:01:35;18.42;;;10.32;;
5823;SDS011;2938;52.254;12.988;2022-11-12T13:37:56;18.58;;;9.73;;
5823;SDS011;2938;52.254;12.988;2022-11-12T13:40:35;14.07;;;8.30;;
5823;SDS011;2938;52.254;12.988;2022-11-12T13:43:25;12.32;;;7.97;;
5823;SDS011;2938;52.254;12.988;2022-11-12T13:48:58;13.20;;;9.25;;
5823;SDS011;2938;52.254;12.988;2022-11-12T13:51:41;11.68;;;8.30;;
5823;SDS011;2938;52.254;12.988;2022-11-12T14:02:42;17.55;;;10.63;;
5823;SDS011;2938;52.254;12.988;2022-11-12T14:05:13;20.30;;;11.25;;
5823;SDS011;2938;52.254;12.988;2022-11-12T14:18:52;11.57;;;7.80;;
5823;SDS011;2938;52.254;12.988;2022-11-12T14:21:24;14.48;;;7.07;;
5823;SDS011;2938;52.254;12.988;2022-11-12T14:23:49;10.90;;;7.20;;
5823;SDS011;2938;52.254;12.988;2022-11-12T14:29:21;12.20;;;7.38;;
5823;SDS011;2938;52.254;12.988;2022-11-12T14:32:02;10.10;;;7.03;;
5823;SDS011;2938;52.254;12.988;2022-11-12T14:34:29;22.98;;;7.32;;
5823;SDS011;2938;52.254;12.988;2022-11-12T14:36:56;14.82;;;8.32;;
5823;SDS011;2938;52.254;12.988;2022-11-12T14:39:23;15.88;;;7.63;;
5823;SDS011;2938;52.254;12.988;2022-11-12T14:41:49;16.92;;;8.60;;
5823;SDS011;2938;52.254;12.988;2022-11-12T14:44:17;16.25;;;8.05;;
5823;SDS011;2938;52.254;12.988;2022-11-12T14:46:52;13.57;;;7.78;;
5823;SDS011;2938;52.254;12.988;2022-11-12T14:51:59;16.73;;;8.13;;
5823;SDS011;2938;52.254;12.988;2022-11-12T14:54:32;13.35;;;8.07;;
5823;SDS011;2938;52.254;12.988;2022-11-12T14:56:59;14.98;;;8.88;;
5823;SDS011;2938;52.254;12.988;2022-11-12T14:59:26;12.57;;;6.88;;
5823;SDS011;2938;52.254;12.988;2022-11-12T15:02:08;10.57;;;6.20;;
5823;SDS011;2938;52.254;12.988;2022-11-12T15:04:37;10.35;;;6.53;;
5823;SDS011;2938;52.254;12.988;2022-11-12T15:09:47;9.85;;;6.57;;
5823;SDS011;2938;52.254;12.988;2022-11-12T15:12:18;9.52;;;5.60;;
5823;SDS011;2938;52.254;12.988;2022-11-12T15:14:44;10.85;;;5.80;;
5823;SDS011;2938;52.254;12.988;2022-11-12T15:17:19;7.75;;;6.18;;
5823;SDS011;2938;52.254;12.988;2022-11-12T15:19:51;12.25;;;6.05;;
5823;SDS011;2938;52.254;12.988;2022-11-12T15:22:17;11.63;;;6.10;;
5823;SDS011;2938;52.254;12.988;2022-11-12T15:24:44;10.35;;;5.00;;
5823;SDS011;2938;52.254;12.988;2022-11-12T15:30:07;11.23;;;6.20;;
5823;SDS011;2938;52.254;12.988;2022-11-12T15:32:40;18.50;;;8.23;;
5823;SDS011;2938;52.254;12.988;2022-11-12T15:35:18;15.65;;;7.60;;
5823;SDS011;2938;52.254;12.988;2022-11-12T15:37:45;14.38;;;6.45;;
5823;SDS011;2938;52.254;12.988;2022-11-12T15:40:11;15.70;;;6.30;;
5823;SDS011;2938;52.254;12.988;2022-11-12T15:42:42;12.48;;;5.50;;
5823;SDS011;2938;52.254;12.988;2022-11-12T15:45:09;9.75;;;4.70;;
5823;SDS011;2938;52.254;12.988;2022-11-12T15:47:38;7.03;;;4.57;;
5823;SDS011;2938;52.254;12.988;2022-11-12T15:50:37;9.15;;;4.90;;
5823;SDS011;2938;52.254;12.988;2022-11-12T15:52:55;8.97;;;5.00;;
5823;SDS011;2938;52.254;12.988;2022-11-12T15:55:21;7.60;;;4.68;;
5823;SDS011;2938;52.254;12.988;2022-11-12T15:57:47;11.63;;;4.80;;
5823;SDS011;2938;52.254;12.988;2022-11-12T16:02:43;15.18;;;5.60;;
5823;SDS011;2938;52.254;12.988;2022-11-12T16:05:12;8.80;;;5.95;;
5823;SDS011;2938;52.254;12.988;2022-11-12T16:07:38;8.23;;;5.40;;
5823;SDS011;2938;52.254;12.988;2022-11-12T16:10:04;9.25;;;5.63;;
5823;SDS011;2938;52.254;12.988;2022-11-12T16:12:29;9.45;;;5.40;;
5823;SDS011;2938;52.254;12.988;2022-11-12T16:14:56;9.93;;;6.55;;
5823;SDS011;2938;52.254;12.988;2022-11-12T16:17:25;18.08;;;6.65;;
5823;SDS011;2938;52.254;12.988;2022-11-12T16:19:51;11.68;;;7.82;;
5823;SDS011;2938;52.254;12.988;2022-11-12T16:22:16;13.30;;;7.78;;
5823;SDS011;2938;52.254;12.988;2022-11-12T16:24:42;13.40;;;9.50;;
5823;SDS011;2938;52.254;12.988;2022-11-12T16:27:12;17.10;;;9.27;;
5823;SDS011;2938;52.254;12.988;2022-11-12T16:29:38;9.98;;;7.53;;
5823;SDS011;2938;52.254;12.988;2022-11-12T16:32:04;16.27;;;8.40;;
5823;SDS011;2938;52.254;12.988;2022-11-12T16:34:30;13.25;;;8.73;;
5823;SDS011;2938;52.254;12.988;2022-11-12T16:36:55;19.50;;;11.75;;
5823;SDS011;2938;52.254;12.988;2022-11-12T16:39:21;18.10;;;10.18;;
5823;SDS011;2938;52.254;12.988;2022-11-12T16:41:46;12.73;;;8.20;;
5823;SDS011;2938;52.254;12.988;2022-11-12T16:44:12;10.23;;;7.63;;
5823;SDS011;2938;52.254;12.988;2022-11-12T16:46:39;17.73;;;9.75;;
5823;SDS011;2938;52.254;12.988;2022-11-12T16:49:05;20.80;;;10.55;;
5823;SDS011;2938;52.254;12.988;2022-11-12T16:51:35;27.73;;;16.90;;
5823;SDS011;2938;52.254;12.988;2022-11-12T16:54:01;19.85;;;11.43;;
5823;SDS011;2938;52.254;12.988;2022-11-12T16:56:26;25.58;;;11.15;;
5823;SDS011;2938;52.254;12.988;2022-11-12T16:58:52;21.63;;;12.48;;
5823;SDS011;2938;52.254;12.988;2022-11-12T17:01:22;20.45;;;11.88;;
5823;SDS011;2938;52.254;12.988;2022-11-12T17:03:52;18.52;;;12.05;;
5823;SDS011;2938;52.254;12.988;2022-11-12T17:06:20;22.65;;;11.57;;
5823;SDS011;2938;52.254;12.988;2022-11-12T17:08:53;18.20;;;11.13;;
5823;SDS011;2938;52.254;12.988;2022-11-12T17:11:18;20.95;;;9.20;;
5823;SDS011;2938;52.254;12.988;2022-11-12T17:13:46;19.25;;;11.68;;
5823;SDS011;2938;52.254;12.988;2022-11-12T17:16:11;19.35;;;10.27;;
5823;SDS011;2938;52.254;12.988;2022-11-12T17:18:37;19.77;;;11.73;;
5823;SDS011;2938;52.254;12.988;2022-11-12T17:21:45;26.73;;;13.73;;